createdAt,value
2022-10-30T00:01:05.748Z,100869.28
2022-10-30T00:03:33.075Z,100856.00
2022-10-30T00:06:04.704Z,100854.19
2022-10-30T00:08:32.403Z,100854.88
2022-10-30T00:11:07.230Z,100867.28
2022-10-30T00:13:35.798Z,100866.63
2022-10-30T00:16:05.975Z,100858.69
2022-10-30T00:18:34.907Z,100856.84
2022-10-30T00:21:11.767Z,100858.50
2022-10-30T00:23:39.739Z,100850.22
2022-10-30T00:26:08.053Z,100810.66
2022-10-30T00:28:36.667Z,100845.56
2022-10-30T00:31:05.918Z,100847.25
2022-10-30T00:33:33.350Z,100822.56
2022-10-30T00:36:01.172Z,100842.44
2022-10-30T00:38:28.405Z,100825.41
2022-10-30T00:40:56.052Z,100819.41
2022-10-30T00:43:34.050Z,100815.59
2022-10-30T00:46:07.898Z,100829.00
2022-10-30T00:48:36.020Z,100825.53
2022-10-30T00:51:08.409Z,100816.25
2022-10-30T00:53:36.019Z,100815.59
2022-10-30T00:56:08.002Z,100812.78
2022-10-30T00:58:43.223Z,100830.00
2022-10-30T01:01:18.045Z,100817.41
2022-10-30T01:03:47.678Z,100821.88
2022-10-30T01:06:17.670Z,100806.66
2022-10-30T01:08:45.840Z,100805.31
2022-10-30T01:11:13.274Z,100799.53
2022-10-30T01:13:45.175Z,100809.47
2022-10-30T01:16:25.224Z,100797.88
2022-10-30T01:19:09.274Z,100767.06
2022-10-30T01:21:45.208Z,100771.53
2022-10-30T01:24:31.510Z,100776.31
2022-10-30T01:27:40.150Z,100789.03
2022-10-30T01:30:22.000Z,100780.94
2022-10-30T01:32:58.593Z,100770.69
2022-10-30T01:35:41.233Z,100753.63
2022-10-30T01:38:29.136Z,100748.66
2022-10-30T01:40:57.221Z,100731.28
2022-10-30T01:43:24.732Z,100741.53
2022-10-30T01:46:24.031Z,100742.81
2022-10-30T01:49:07.711Z,100736.34
2022-10-30T01:52:08.854Z,100729.88
2022-10-30T01:54:46.849Z,100731.25
2022-10-30T01:57:36.477Z,100722.59
2022-10-30T02:00:12.127Z,100731.53
2022-10-30T02:02:48.654Z,100726.13
2022-10-30T02:05:28.243Z,100721.66
2022-10-30T02:07:55.942Z,100705.41
2022-10-30T02:10:25.281Z,100723.91
2022-10-30T02:12:53.160Z,100710.66
2022-10-30T02:15:23.471Z,100702.22
2022-10-30T02:17:50.725Z,100691.50
2022-10-30T02:20:20.543Z,100696.09
2022-10-30T02:22:51.787Z,100686.84
2022-10-30T02:25:21.839Z,100688.66
2022-10-30T02:27:49.920Z,100680.56
2022-10-30T02:30:17.406Z,100689.19
2022-10-30T02:32:47.026Z,100674.75
2022-10-30T02:35:14.663Z,100690.66
2022-10-30T02:37:41.873Z,100674.75
2022-10-30T02:40:10.806Z,100640.97
2022-10-30T02:42:39.217Z,100648.28
2022-10-30T02:45:08.268Z,100655.00
2022-10-30T02:47:35.609Z,100670.06
2022-10-30T02:50:03.100Z,100660.44
2022-10-30T02:52:31.269Z,100657.97
2022-10-30T02:54:58.836Z,100653.38
2022-10-30T02:57:26.207Z,100661.63
2022-10-30T02:59:53.495Z,100655.16
2022-10-30T03:02:22.422Z,100649.50
2022-10-30T03:04:50.500Z,100636.94
2022-10-30T03:07:17.957Z,100644.59
2022-10-30T03:09:45.541Z,100637.00
2022-10-30T03:12:13.020Z,100648.41
2022-10-30T03:14:40.503Z,100630.19
2022-10-30T03:17:07.716Z,100627.38
2022-10-30T03:19:37.148Z,100619.75
2022-10-30T03:22:04.736Z,100616.97
2022-10-30T03:24:32.377Z,100614.16
2022-10-30T03:26:59.537Z,100611.34
2022-10-30T03:29:26.734Z,100610.50
2022-10-30T03:31:54.186Z,100612.66
2022-10-30T03:34:22.742Z,100605.50
2022-10-30T03:36:50.092Z,100608.75
2022-10-30T03:39:17.265Z,100583.47
2022-10-30T03:41:46.473Z,100597.50
2022-10-30T03:44:14.288Z,100591.53
2022-10-30T03:46:41.816Z,100582.94
2022-10-30T03:49:23.385Z,100578.19
2022-10-30T03:51:50.569Z,100586.47
2022-10-30T03:54:18.644Z,100577.50
2022-10-30T03:56:46.398Z,100568.03
2022-10-30T03:59:33.890Z,100554.47
2022-10-30T04:02:39.490Z,100568.28
2022-10-30T04:05:09.241Z,100559.63
2022-10-30T04:07:36.703Z,100542.59
2022-10-30T04:10:04.570Z,100561.47
2022-10-30T04:12:34.548Z,100557.97
2022-10-30T04:15:04.162Z,100544.22
2022-10-30T04:17:31.548Z,100536.28
2022-10-30T04:20:03.904Z,100552.16
2022-10-30T04:22:33.000Z,100541.75
2022-10-30T04:25:01.171Z,100535.44
2022-10-30T04:27:45.643Z,100548.66
2022-10-30T04:30:14.089Z,100515.38
2022-10-30T04:32:54.021Z,100537.66
2022-10-30T04:35:24.868Z,100523.84
2022-10-30T04:38:00.257Z,100512.38
2022-10-30T04:40:30.549Z,100524.59
2022-10-30T04:43:05.825Z,100538.81
2022-10-30T04:45:34.773Z,100540.88
2022-10-30T04:48:10.932Z,100542.53
2022-10-30T04:50:39.256Z,100534.97
2022-10-30T04:53:18.777Z,100521.03
2022-10-30T04:55:55.155Z,100537.59
2022-10-30T04:58:24.506Z,100500.38
2022-10-30T05:01:05.862Z,100540.06
2022-10-30T05:03:35.384Z,100511.56
2022-10-30T05:06:13.495Z,100521.16
2022-10-30T05:08:41.108Z,100527.78
2022-10-30T05:11:20.817Z,100518.53
2022-10-30T05:13:48.551Z,100504.31
2022-10-30T05:16:17.810Z,100517.03
2022-10-30T05:18:45.594Z,100511.06
2022-10-30T05:21:14.811Z,100521.09
2022-10-30T05:23:43.244Z,100515.34
2022-10-30T05:26:11.525Z,100484.00
2022-10-30T05:28:41.304Z,100497.53
2022-10-30T05:31:09.591Z,100490.25
2022-10-30T05:34:07.209Z,100481.63
2022-10-30T05:36:38.294Z,100495.03
2022-10-30T05:39:07.576Z,100492.41
2022-10-30T05:41:38.122Z,100491.91
2022-10-30T05:44:06.440Z,100508.53
2022-10-30T05:46:35.294Z,100473.09
2022-10-30T05:49:23.148Z,100501.13
2022-10-30T05:51:50.502Z,100483.16
2022-10-30T05:54:18.382Z,100482.34
2022-10-30T05:57:18.237Z,100498.38
2022-10-30T05:59:46.165Z,100461.19
2022-10-30T06:02:14.607Z,100488.06
2022-10-30T06:04:43.289Z,100478.16
2022-10-30T06:07:13.777Z,100468.69
2022-10-30T06:09:40.951Z,100470.50
2022-10-30T06:12:28.423Z,100472.00
2022-10-30T06:15:05.555Z,100461.59
2022-10-30T06:17:33.577Z,100479.28
2022-10-30T06:20:13.518Z,100492.41
2022-10-30T06:23:07.911Z,100477.28
2022-10-30T06:25:49.370Z,100459.63
2022-10-30T06:28:27.467Z,100465.41
2022-10-30T06:30:55.491Z,100458.44
2022-10-30T06:33:26.553Z,100473.34
2022-10-30T06:35:54.820Z,100460.28
2022-10-30T06:38:23.938Z,100477.19
2022-10-30T06:40:53.039Z,100465.59
2022-10-30T06:43:59.888Z,100448.53
2022-10-30T06:46:32.445Z,100462.44
2022-10-30T06:49:01.859Z,100472.69
2022-10-30T06:51:31.298Z,100461.94
2022-10-30T06:54:00.300Z,100464.41
2022-10-30T06:56:40.312Z,100427.66
2022-10-30T06:59:34.734Z,100445.47
2022-10-30T07:02:22.038Z,100426.84
2022-10-30T07:04:55.126Z,100449.59
2022-10-30T07:07:22.312Z,100435.56
2022-10-30T07:09:50.270Z,100427.75
2022-10-30T07:12:22.503Z,100416.47
2022-10-30T07:15:00.723Z,100418.94
2022-10-30T07:18:01.686Z,100408.16
2022-10-30T07:20:32.823Z,100408.66
2022-10-30T07:23:01.124Z,100410.97
2022-10-30T07:25:29.301Z,100403.22
2022-10-30T07:28:05.298Z,100408.66
2022-10-30T07:30:52.808Z,100379.66
2022-10-30T07:33:37.740Z,100380.19
2022-10-30T07:36:26.027Z,100372.38
2022-10-30T07:39:04.380Z,100390.16
2022-10-30T07:41:53.281Z,100351.88
2022-10-30T07:44:40.005Z,100377.72
2022-10-30T07:47:32.018Z,100369.41
2022-10-30T07:50:12.060Z,100375.38
2022-10-30T07:52:39.845Z,100382.31
2022-10-30T07:55:09.153Z,100381.84
2022-10-30T07:57:43.367Z,100394.75
2022-10-30T08:00:26.324Z,100375.03
2022-10-30T08:03:06.492Z,100367.97
2022-10-30T08:05:55.513Z,100392.66
2022-10-30T08:08:28.672Z,100389.72
2022-10-30T08:11:07.811Z,100396.09
2022-10-30T08:13:34.983Z,100387.75
2022-10-30T08:16:02.417Z,100385.47
2022-10-30T08:18:29.907Z,100382.34
2022-10-30T08:20:57.091Z,100378.25
2022-10-30T08:23:25.195Z,100361.91
2022-10-30T08:25:53.382Z,100341.75
2022-10-30T08:28:28.276Z,100343.38
2022-10-30T08:31:00.383Z,100356.63
2022-10-30T08:33:47.471Z,100353.66
2022-10-30T08:36:28.096Z,100355.59
2022-10-30T08:38:55.583Z,100293.06
2022-10-30T08:41:40.374Z,100347.44
2022-10-30T08:44:07.795Z,100327.53
2022-10-30T08:47:02.124Z,100341.03
2022-10-30T08:49:30.770Z,100321.41
2022-10-30T08:52:00.144Z,100349.97
2022-10-30T08:54:28.338Z,100344.66
2022-10-30T08:56:57.040Z,100338.13
2022-10-30T08:59:27.591Z,100330.16
2022-10-30T09:01:58.782Z,100310.94
2022-10-30T09:04:58.773Z,100318.56
2022-10-30T09:08:04.648Z,100333.88
2022-10-30T09:10:56.265Z,100320.34
2022-10-30T09:13:25.749Z,100336.63
2022-10-30T09:15:54.486Z,100325.38
2022-10-30T09:18:22.403Z,100292.78
2022-10-30T09:20:51.062Z,100309.75
2022-10-30T09:23:19.842Z,100312.09
2022-10-30T09:25:51.664Z,100309.72
2022-10-30T09:28:42.629Z,100338.84
2022-10-30T09:31:33.514Z,100316.09
2022-10-30T09:34:04.727Z,100289.75
2022-10-30T09:36:55.036Z,100304.50
2022-10-30T09:39:23.393Z,100317.44
2022-10-30T09:42:12.315Z,100321.56
2022-10-30T09:45:08.104Z,100307.00
2022-10-30T09:48:05.589Z,100298.19
2022-10-30T09:50:57.934Z,100312.41
2022-10-30T09:53:49.827Z,100277.09
2022-10-30T09:56:34.870Z,100257.50
2022-10-30T09:59:08.769Z,100303.72
2022-10-30T10:01:53.498Z,100294.59
2022-10-30T10:04:35.892Z,100296.09
2022-10-30T10:07:56.684Z,100282.81
2022-10-30T10:11:05.947Z,100239.81
2022-10-30T10:13:45.368Z,100288.31
2022-10-30T10:16:20.411Z,100252.88
2022-10-30T10:19:12.573Z,100246.53
2022-10-30T10:21:58.947Z,100250.69
2022-10-30T10:24:46.501Z,100243.75
2022-10-30T10:27:34.415Z,100255.41
2022-10-30T10:30:10.824Z,100249.50
2022-10-30T10:33:17.882Z,100193.66
2022-10-30T10:36:20.692Z,100209.78
2022-10-30T10:38:53.987Z,100229.84
2022-10-30T10:41:40.267Z,100166.34
2022-10-30T10:44:26.277Z,100208.94
2022-10-30T10:47:28.403Z,100203.19
2022-10-30T10:50:09.050Z,100160.94
2022-10-30T10:52:59.296Z,100187.09
2022-10-30T10:55:37.638Z,100197.16
2022-10-30T10:58:22.649Z,100187.91
2022-10-30T11:00:50.852Z,100203.88
2022-10-30T11:03:26.288Z,100208.22
2022-10-30T11:06:23.757Z,100244.22
2022-10-30T11:08:54.358Z,100249.69
2022-10-30T11:11:22.448Z,100266.09
2022-10-30T11:13:50.474Z,100254.56
2022-10-30T11:16:36.326Z,100255.78
2022-10-30T11:19:09.654Z,100234.44
2022-10-30T11:21:42.593Z,100218.81
2022-10-30T11:24:26.259Z,100253.56
2022-10-30T11:26:55.408Z,100226.19
2022-10-30T11:29:32.402Z,100260.34
2022-10-30T11:32:04.955Z,100235.59
2022-10-30T11:34:39.751Z,100257.63
2022-10-30T11:37:27.986Z,100239.59
2022-10-30T11:40:12.285Z,100240.66
2022-10-30T11:42:56.199Z,100237.25
2022-10-30T11:45:34.040Z,100226.81
2022-10-30T11:48:23.198Z,100228.38
2022-10-30T11:50:54.413Z,100221.22
2022-10-30T11:53:37.823Z,100242.47
2022-10-30T11:56:15.737Z,100244.59
2022-10-30T11:58:55.849Z,100233.38
2022-10-30T12:01:25.680Z,100246.97
2022-10-30T12:03:54.855Z,100250.16
2022-10-30T12:06:29.611Z,100241.91
2022-10-30T12:09:04.380Z,100226.63
2022-10-30T12:11:35.103Z,100209.19
2022-10-30T12:14:03.577Z,100233.63
2022-10-30T12:16:31.506Z,100185.97
2022-10-30T12:19:15.455Z,100234.78
2022-10-30T12:21:50.270Z,100235.25
2022-10-30T12:24:34.491Z,100239.16
2022-10-30T12:27:04.198Z,100212.31
2022-10-30T12:30:16.644Z,100221.88
2022-10-30T12:32:57.038Z,100223.84
2022-10-30T12:35:43.682Z,100224.88
2022-10-30T12:38:19.561Z,100223.72
2022-10-30T12:41:00.449Z,100238.94
2022-10-30T12:43:28.225Z,100227.38
2022-10-30T12:46:15.972Z,100223.66
2022-10-30T12:48:53.895Z,100231.66
2022-10-30T12:51:48.633Z,100242.09
2022-10-30T12:54:54.780Z,100232.56
2022-10-30T12:57:27.279Z,100242.25
2022-10-30T12:59:56.103Z,100230.84
2022-10-30T13:02:43.333Z,100248.53
2022-10-30T13:05:29.808Z,100222.69
2022-10-30T13:08:17.589Z,100252.69
2022-10-30T13:10:55.129Z,100243.09
2022-10-30T13:13:57.215Z,100234.97
2022-10-30T13:16:32.549Z,100209.78
2022-10-30T13:19:04.032Z,100200.88
2022-10-30T13:21:50.227Z,100232.31
2022-10-30T13:25:03.867Z,100255.09
2022-10-30T13:27:56.135Z,100233.75
2022-10-30T13:30:29.909Z,100223.94
2022-10-30T13:33:06.714Z,100234.50
2022-10-30T13:35:58.074Z,100202.78
2022-10-30T13:38:46.257Z,100240.28
2022-10-30T13:41:34.842Z,100246.31
2022-10-30T13:44:25.843Z,100229.72
2022-10-30T13:47:03.623Z,100230.44
2022-10-30T13:49:33.095Z,100220.97
2022-10-30T13:52:14.738Z,100246.31
2022-10-30T13:54:48.646Z,100231.06
2022-10-30T13:57:40.865Z,100232.16
2022-10-30T14:00:20.888Z,100227.38
2022-10-30T14:02:55.298Z,100240.28
2022-10-30T14:06:00.132Z,100235.13
2022-10-30T14:09:19.238Z,100237.28
2022-10-30T14:11:46.659Z,100218.78
2022-10-30T14:14:14.022Z,100244.25
2022-10-30T14:17:04.412Z,100234.28
2022-10-30T14:19:32.359Z,100214.59
2022-10-30T14:22:00.355Z,100208.69
2022-10-30T14:24:33.141Z,100226.13
2022-10-30T14:27:07.945Z,100225.28
2022-10-30T14:29:35.330Z,100227.22
2022-10-30T14:32:04.049Z,100210.97
2022-10-30T14:34:53.584Z,100227.09
2022-10-30T14:37:29.280Z,100227.19
2022-10-30T14:39:59.957Z,100214.63
2022-10-30T14:42:40.146Z,100230.31
2022-10-30T14:45:41.559Z,100227.66
2022-10-30T14:48:19.125Z,100217.63
2022-10-30T14:51:35.173Z,100219.75
2022-10-30T14:54:18.580Z,100232.31
2022-10-30T14:56:51.380Z,100204.78
2022-10-30T14:59:18.899Z,100227.66
2022-10-30T15:01:56.861Z,100221.13
2022-10-30T15:04:45.537Z,100244.81
2022-10-30T15:07:25.076Z,100227.56
2022-10-30T15:10:07.341Z,100218.31
2022-10-30T15:12:59.736Z,100222.75
2022-10-30T15:15:30.165Z,100243.16
2022-10-30T15:18:02.449Z,100221.66
2022-10-30T15:20:33.737Z,100220.44
2022-10-30T15:23:04.860Z,100222.38
2022-10-30T15:25:56.982Z,100242.59
2022-10-30T15:28:35.549Z,100213.13
2022-10-30T15:31:27.822Z,100230.72
2022-10-30T15:34:00.269Z,100234.56
2022-10-30T15:36:31.555Z,100240.69
2022-10-30T15:39:13.371Z,100223.44
2022-10-30T15:41:46.530Z,100225.72
2022-10-30T15:46:48.745Z,100243.97
2022-10-30T15:49:21.454Z,100236.84
2022-10-30T15:51:48.795Z,100240.28
2022-10-30T15:54:24.110Z,100201.03
2022-10-30T15:59:57.083Z,100224.28
2022-10-30T16:02:28.226Z,100227.72
2022-10-30T16:04:55.959Z,100198.69
2022-10-30T16:07:29.252Z,100223.38
2022-10-30T16:10:01.684Z,100192.63
2022-10-30T16:12:34.759Z,100215.00
2022-10-30T16:15:09.090Z,100213.63
2022-10-30T16:17:36.483Z,100225.84
2022-10-30T16:20:10.158Z,100224.06
2022-10-30T16:22:39.810Z,100204.97
2022-10-30T16:25:09.622Z,100222.03
2022-10-30T16:27:44.555Z,100190.00
2022-10-30T16:30:16.516Z,100197.88
2022-10-30T16:32:52.759Z,100207.19
2022-10-30T16:35:23.024Z,100194.81
2022-10-30T16:37:51.076Z,100226.53
2022-10-30T16:40:23.894Z,100210.81
2022-10-30T16:42:56.499Z,100201.06
2022-10-30T16:45:23.961Z,100196.94
2022-10-30T16:48:00.134Z,100194.00
2022-10-30T16:50:35.548Z,100199.91
2022-10-30T16:53:10.471Z,100192.28
2022-10-30T16:55:39.797Z,100187.13
2022-10-30T16:58:07.899Z,100158.03
2022-10-30T17:00:36.625Z,100184.31
2022-10-30T17:03:11.567Z,100196.38
2022-10-30T17:05:46.834Z,100172.50
2022-10-30T17:08:17.452Z,100179.16
2022-10-30T17:11:00.440Z,100173.75
2022-10-30T17:13:32.181Z,100190.56
2022-10-30T17:16:12.865Z,100185.47
2022-10-30T17:18:40.220Z,100151.69
2022-10-30T17:21:14.257Z,100147.84
2022-10-30T17:23:46.980Z,100178.69
2022-10-30T17:26:16.255Z,100172.22
2022-10-30T17:28:45.381Z,100171.75
2022-10-30T17:31:20.502Z,100168.13
2022-10-30T17:34:06.077Z,100149.00
2022-10-30T17:36:34.753Z,100168.59
2022-10-30T17:39:02.687Z,100177.78
2022-10-30T17:41:30.165Z,100175.53
2022-10-30T17:43:57.581Z,100166.47
2022-10-30T17:46:27.560Z,100173.06
2022-10-30T17:48:55.041Z,100174.44
2022-10-30T17:51:22.903Z,100146.16
2022-10-30T17:53:50.499Z,100175.00
2022-10-30T17:56:25.821Z,100168.31
2022-10-30T17:58:54.616Z,100174.63
2022-10-30T18:01:28.495Z,100181.66
2022-10-30T18:03:56.515Z,100172.03
2022-10-30T18:06:32.108Z,100179.72
2022-10-30T18:08:59.324Z,100160.03
2022-10-30T18:11:27.392Z,100172.19
2022-10-30T18:13:57.961Z,100167.63
2022-10-30T18:16:25.690Z,100166.94
2022-10-30T18:18:55.414Z,100161.19
2022-10-30T18:21:31.994Z,100165.75
2022-10-30T18:24:00.266Z,100165.88
2022-10-30T18:26:28.288Z,100144.22
2022-10-30T18:28:55.769Z,100162.94
2022-10-30T18:31:25.029Z,100174.75
2022-10-30T18:33:52.216Z,100182.28
2022-10-30T18:36:23.743Z,100170.56
2022-10-30T18:38:56.289Z,100174.00
2022-10-30T18:41:32.793Z,100152.47
2022-10-30T18:44:00.451Z,100163.09
2022-10-30T18:46:30.749Z,100176.19
2022-10-30T18:48:59.031Z,100148.44
2022-10-30T18:51:28.800Z,100149.31
2022-10-30T18:53:57.909Z,100162.88
2022-10-30T18:56:30.046Z,100146.97
2022-10-30T18:59:02.356Z,100155.44
2022-10-30T19:01:34.775Z,100137.03
2022-10-30T19:04:04.506Z,100147.69
2022-10-30T19:06:34.876Z,100167.38
2022-10-30T19:09:02.782Z,100168.09
2022-10-30T19:11:31.789Z,100144.53
2022-10-30T19:14:00.368Z,100159.88
2022-10-30T19:16:27.868Z,100161.63
2022-10-30T19:18:55.206Z,100162.25
2022-10-30T19:21:26.406Z,100141.22
2022-10-30T19:23:56.997Z,100149.59
2022-10-30T19:26:24.690Z,100139.28
2022-10-30T19:28:52.039Z,100139.81
2022-10-30T19:31:19.834Z,100110.03
2022-10-30T19:33:51.491Z,100115.47
2022-10-30T19:36:34.878Z,100099.78
2022-10-30T19:39:11.888Z,100094.47
2022-10-30T19:41:41.572Z,100112.88
2022-10-30T19:44:10.000Z,100122.00
2022-10-30T19:46:38.003Z,100120.69
2022-10-30T19:49:20.349Z,100113.97
2022-10-30T19:51:48.686Z,100087.91
2022-10-30T19:54:15.970Z,100097.78
2022-10-30T19:56:46.004Z,100087.00
2022-10-30T19:59:15.032Z,100101.81
2022-10-30T20:01:43.928Z,100107.44
2022-10-30T20:04:11.566Z,100110.25
2022-10-30T20:06:39.124Z,100114.88
2022-10-30T20:09:06.781Z,100112.78
2022-10-30T20:11:34.378Z,100112.69
2022-10-30T20:14:01.679Z,100115.03
2022-10-30T20:16:28.883Z,100082.34
2022-10-30T20:18:56.329Z,100090.75
2022-10-30T20:21:23.526Z,100106.63
2022-10-30T20:23:51.197Z,100091.44
2022-10-30T20:26:28.540Z,100088.50
2022-10-30T20:28:56.017Z,100077.06
2022-10-30T20:31:24.449Z,100082.66
2022-10-30T20:33:53.594Z,100081.50
2022-10-30T20:36:20.888Z,100057.63
2022-10-30T20:38:49.030Z,100069.00
2022-10-30T20:41:25.666Z,100062.97
2022-10-30T20:43:52.982Z,100070.03
2022-10-30T20:46:20.969Z,100051.88
2022-10-30T20:48:48.496Z,100044.41
2022-10-30T20:51:16.708Z,100074.06
2022-10-30T20:53:43.983Z,100065.84
2022-10-30T20:56:12.111Z,100066.28
2022-10-30T20:58:41.586Z,100048.09
2022-10-30T21:01:09.388Z,100078.00
2022-10-30T21:03:36.692Z,100058.94
2022-10-30T21:06:04.394Z,100065.78
2022-10-30T21:08:32.581Z,100071.31
2022-10-30T21:11:01.802Z,100043.03
2022-10-30T21:13:29.934Z,100029.28
2022-10-30T21:16:02.886Z,100061.38
2022-10-30T21:18:31.052Z,100059.25
2022-10-30T21:21:07.105Z,100060.03
2022-10-30T21:23:34.752Z,100046.03
2022-10-30T21:26:07.153Z,100046.84
2022-10-30T21:28:34.695Z,100037.25
2022-10-30T21:31:04.908Z,100047.75
2022-10-30T21:33:33.784Z,100026.84
2022-10-30T21:36:12.997Z,100048.50
2022-10-30T21:38:42.684Z,100056.22
2022-10-30T21:41:11.603Z,100044.22
2022-10-30T21:43:39.184Z,100043.38
2022-10-30T21:46:12.663Z,100044.75
2022-10-30T21:48:40.052Z,100024.84
2022-10-30T21:51:08.796Z,100042.59
2022-10-30T21:53:36.995Z,100037.66
2022-10-30T21:56:06.864Z,100017.25
2022-10-30T21:58:34.639Z,100027.31
2022-10-30T22:01:02.886Z,100037.28
2022-10-30T22:03:30.629Z,100037.91
2022-10-30T22:05:58.131Z,100014.53
2022-10-30T22:08:25.456Z,100029.38
2022-10-30T22:10:52.678Z,100014.75
2022-10-30T22:13:19.934Z,100027.94
2022-10-30T22:15:54.984Z,100031.59
2022-10-30T22:18:22.457Z,100030.66
2022-10-30T22:20:50.208Z,100042.75
2022-10-30T22:23:17.911Z,100013.00
2022-10-30T22:25:57.252Z,100028.97
2022-10-30T22:28:24.476Z,100028.31
2022-10-30T22:30:52.331Z,100002.00
2022-10-30T22:33:20.607Z,100024.19
2022-10-30T22:35:48.948Z,100015.03
2022-10-30T22:38:16.929Z,100000.72
2022-10-30T22:40:46.832Z,100022.84
2022-10-30T22:43:14.191Z,100032.56
2022-10-30T22:45:41.461Z,100018.38
2022-10-30T22:48:08.823Z,100019.16
2022-10-30T22:50:37.506Z,100007.25
2022-10-30T22:53:05.526Z,100014.94
2022-10-30T22:55:32.773Z,100001.19
2022-10-30T22:58:00.435Z,100004.00
2022-10-30T23:00:28.014Z,99996.91
2022-10-30T23:02:56.007Z,100003.03
2022-10-30T23:05:23.576Z,99976.56
2022-10-30T23:07:52.444Z,99999.38
2022-10-30T23:10:20.975Z,99990.13
2022-10-30T23:12:48.190Z,99985.06
2022-10-30T23:15:15.604Z,99995.44
2022-10-30T23:17:43.091Z,100001.53
2022-10-30T23:20:11.527Z,99992.75
2022-10-30T23:22:40.104Z,99996.63
2022-10-30T23:25:07.602Z,99972.84
2022-10-30T23:27:35.444Z,99986.97
2022-10-30T23:30:02.722Z,99977.63
2022-10-30T23:32:31.200Z,99973.94
2022-10-30T23:34:58.588Z,99962.09
2022-10-30T23:37:25.727Z,99962.72
2022-10-30T23:39:53.153Z,99982.06
2022-10-30T23:42:20.707Z,99964.91
2022-10-30T23:44:47.925Z,99974.28
2022-10-30T23:47:16.256Z,99976.41
2022-10-30T23:49:44.820Z,99973.78
2022-10-30T23:52:12.210Z,99951.19
2022-10-30T23:54:40.525Z,99957.66
2022-10-30T23:57:08.063Z,99956.28
2022-10-30T23:59:35.892Z,99942.59
